createdAt,value
2018-07-15T00:02:05.692Z,16.70
2018-07-15T00:04:36.925Z,16.70
2018-07-15T00:07:07.943Z,16.60
2018-07-15T00:09:39.098Z,16.60
2018-07-15T00:12:10.282Z,16.60
2018-07-15T00:14:41.280Z,16.50
2018-07-15T00:17:12.463Z,16.50
2018-07-15T00:19:43.595Z,16.40
2018-07-15T00:22:14.906Z,16.40
2018-07-15T00:24:45.935Z,16.30
2018-07-15T00:27:17.220Z,16.30
2018-07-15T00:29:48.660Z,16.30
2018-07-15T00:32:20.134Z,16.20
2018-07-15T00:34:51.553Z,16.20
2018-07-15T00:37:23.004Z,16.20
2018-07-15T00:39:54.146Z,16.10
2018-07-15T00:42:25.593Z,16.10
2018-07-15T00:44:56.822Z,16.00
2018-07-15T00:47:28.066Z,16.00
2018-07-15T00:49:59.365Z,15.90
2018-07-15T00:52:30.508Z,15.90
2018-07-15T00:55:01.768Z,15.90
2018-07-15T00:57:33.153Z,15.80
2018-07-15T01:00:04.454Z,15.80
2018-07-15T01:02:35.809Z,15.80
2018-07-15T01:05:07.006Z,15.80
2018-07-15T01:07:38.154Z,15.70
2018-07-15T01:10:09.374Z,15.70
2018-07-15T01:12:40.650Z,15.70
2018-07-15T01:15:11.780Z,15.60
2018-07-15T01:17:43.004Z,15.60
2018-07-15T01:20:13.934Z,15.50
2018-07-15T01:22:45.063Z,15.50
2018-07-15T01:25:16.310Z,15.40
2018-07-15T01:27:47.429Z,15.40
2018-07-15T01:30:18.496Z,15.40
2018-07-15T01:32:51.529Z,15.40
2018-07-15T01:35:39.115Z,15.40
2018-07-15T01:38:10.286Z,15.30
2018-07-15T01:40:42.145Z,15.30
2018-07-15T01:43:13.300Z,15.20
2018-07-15T01:45:44.607Z,15.20
2018-07-15T01:48:15.997Z,15.20
2018-07-15T01:50:47.127Z,15.10
2018-07-15T01:53:18.332Z,15.10
2018-07-15T01:55:49.456Z,15.10
2018-07-15T01:58:20.724Z,15.10
2018-07-15T02:00:51.851Z,15.10
2018-07-15T02:03:22.985Z,15.20
2018-07-15T02:05:54.177Z,15.20
2018-07-15T02:08:25.291Z,15.30
2018-07-15T02:10:56.355Z,15.20
2018-07-15T02:13:27.591Z,15.20
2018-07-15T02:15:58.754Z,15.10
2018-07-15T02:18:30.460Z,15.10
2018-07-15T02:21:01.633Z,15.00
2018-07-15T02:23:33.902Z,15.00
2018-07-15T02:26:05.035Z,14.90
2018-07-15T02:28:36.582Z,14.90
2018-07-15T02:31:07.907Z,14.80
2018-07-15T02:33:39.282Z,14.70
2018-07-15T02:36:10.534Z,14.70
2018-07-15T02:38:41.868Z,14.60
2018-07-15T02:41:13.080Z,14.60
2018-07-15T02:43:44.359Z,14.50
2018-07-15T02:46:15.598Z,14.50
2018-07-15T02:48:46.800Z,14.50
2018-07-15T02:51:18.035Z,14.40
2018-07-15T02:53:49.253Z,14.40
2018-07-15T02:56:20.516Z,14.40
2018-07-15T02:58:52.894Z,14.30
2018-07-15T03:01:24.120Z,14.30
2018-07-15T03:06:25.556Z,14.20
2018-07-15T03:08:56.695Z,14.20
2018-07-15T03:11:28.035Z,14.30
2018-07-15T03:13:59.071Z,14.30
2018-07-15T03:16:30.190Z,14.40
2018-07-15T03:19:01.256Z,14.50
2018-07-15T03:21:32.716Z,14.50
2018-07-15T03:24:03.932Z,14.50
2018-07-15T03:26:35.180Z,14.50
2018-07-15T03:29:06.478Z,14.50
2018-07-15T03:31:37.688Z,14.40
2018-07-15T03:34:08.962Z,14.40
2018-07-15T03:36:40.592Z,14.40
2018-07-15T03:39:11.997Z,14.40
2018-07-15T03:41:43.197Z,14.40
2018-07-15T03:44:14.303Z,14.50
2018-07-15T03:46:45.773Z,14.50
2018-07-15T03:49:16.865Z,14.50
2018-07-15T03:51:48.181Z,14.60
2018-07-15T03:54:19.677Z,14.60
2018-07-15T03:56:50.953Z,14.60
2018-07-15T03:59:22.410Z,14.60
2018-07-15T04:01:53.682Z,14.70
2018-07-15T04:04:24.760Z,14.70
2018-07-15T04:06:55.969Z,14.80
2018-07-15T04:09:27.439Z,14.80
2018-07-15T04:11:58.527Z,14.80
2018-07-15T04:14:29.642Z,14.80
2018-07-15T04:17:01.043Z,14.90
2018-07-15T04:19:32.259Z,14.90
2018-07-15T04:22:03.452Z,15.00
2018-07-15T04:24:34.630Z,15.10
2018-07-15T04:27:05.780Z,15.10
2018-07-15T04:29:37.128Z,15.30
2018-07-15T04:32:08.442Z,15.50
2018-07-15T04:34:39.718Z,15.90
2018-07-15T04:37:11.365Z,16.20
2018-07-15T04:39:42.720Z,16.40
2018-07-15T04:42:14.116Z,16.50
2018-07-15T04:44:45.175Z,16.70
2018-07-15T04:47:16.132Z,17.20
2018-07-15T04:49:47.298Z,17.60
2018-07-15T04:52:18.276Z,18.10
2018-07-15T04:54:49.383Z,18.50
2018-07-15T04:57:20.543Z,18.90
2018-07-15T04:59:51.801Z,19.40
2018-07-15T05:02:23.168Z,19.80
2018-07-15T05:04:54.177Z,20.20
2018-07-15T05:07:25.389Z,20.60
2018-07-15T05:09:56.750Z,20.90
2018-07-15T05:12:28.011Z,21.20
2018-07-15T05:14:59.386Z,21.50
2018-07-15T05:17:30.736Z,21.70
2018-07-15T05:20:01.980Z,21.90
2018-07-15T05:22:33.130Z,22.10
2018-07-15T05:25:04.216Z,22.30
2018-07-15T05:27:35.398Z,22.50
2018-07-15T05:30:06.903Z,22.70
2018-07-15T05:32:38.203Z,22.90
2018-07-15T05:35:09.841Z,23.10
2018-07-15T05:37:41.153Z,23.20
2018-07-15T05:40:12.881Z,23.40
2018-07-15T05:42:44.148Z,23.50
2018-07-15T05:45:15.403Z,23.60
2018-07-15T05:47:46.500Z,23.70
2018-07-15T05:50:17.801Z,23.80
2018-07-15T05:52:48.905Z,23.80
2018-07-15T05:55:20.256Z,23.80
2018-07-15T05:57:51.403Z,23.70
2018-07-15T06:00:22.396Z,23.60
2018-07-15T06:02:53.488Z,23.50
2018-07-15T06:05:24.947Z,23.50
2018-07-15T06:07:56.116Z,23.40
2018-07-15T06:10:27.510Z,23.50
2018-07-15T06:12:58.799Z,23.40
2018-07-15T06:15:29.974Z,23.30
2018-07-15T06:18:01.454Z,23.30
2018-07-15T06:20:32.477Z,23.30
2018-07-15T06:23:03.707Z,23.40
2018-07-15T06:25:35.063Z,23.40
2018-07-15T06:28:06.190Z,23.50
2018-07-15T06:30:37.409Z,23.50
2018-07-15T06:33:08.852Z,23.60
2018-07-15T06:35:40.262Z,23.70
2018-07-15T06:38:11.728Z,23.70
2018-07-15T06:40:43.199Z,23.80
2018-07-15T06:43:14.491Z,23.90
2018-07-15T06:45:45.723Z,24.00
2018-07-15T06:48:16.694Z,23.90
2018-07-15T06:50:48.410Z,24.00
2018-07-15T06:53:19.611Z,24.00
2018-07-15T06:55:50.941Z,24.10
2018-07-15T06:58:22.130Z,24.20
2018-07-15T07:00:53.223Z,24.30
2018-07-15T07:03:24.575Z,24.40
2018-07-15T07:05:55.716Z,24.40
2018-07-15T07:08:26.904Z,24.50
2018-07-15T07:10:58.247Z,24.60
2018-07-15T07:13:29.401Z,24.70
2018-07-15T07:16:00.765Z,24.80
2018-07-15T07:18:31.923Z,24.90
2018-07-15T07:21:03.344Z,25.00
2018-07-15T07:23:34.553Z,25.00
2018-07-15T07:26:05.871Z,25.10
2018-07-15T07:28:37.370Z,25.10
2018-07-15T07:31:08.594Z,25.10
2018-07-15T07:33:39.938Z,25.20
2018-07-15T07:36:11.151Z,25.30
2018-07-15T07:38:42.331Z,25.30
2018-07-15T07:41:13.468Z,25.50
2018-07-15T07:43:44.898Z,25.60
2018-07-15T07:46:15.975Z,25.70
2018-07-15T07:48:47.113Z,25.80
2018-07-15T07:51:18.306Z,25.80
2018-07-15T07:53:49.516Z,25.90
2018-07-15T07:56:20.518Z,26.00
2018-07-15T07:58:51.590Z,26.10
2018-07-15T08:01:22.730Z,26.30
2018-07-15T08:03:53.956Z,26.50
2018-07-15T08:06:25.396Z,26.60
2018-07-15T08:08:56.933Z,26.70
2018-07-15T08:11:28.347Z,26.70
2018-07-15T08:13:59.599Z,26.80
2018-07-15T08:16:30.899Z,27.00
2018-07-15T08:19:02.213Z,27.20
2018-07-15T08:21:33.407Z,27.60
2018-07-15T08:24:04.611Z,28.00
2018-07-15T08:26:35.879Z,28.40
2018-07-15T08:29:07.083Z,28.70
2018-07-15T08:31:38.392Z,28.90
2018-07-15T08:34:09.685Z,29.00
2018-07-15T08:36:41.032Z,28.90
2018-07-15T08:39:12.380Z,29.00
2018-07-15T08:41:43.727Z,29.10
2018-07-15T08:44:14.771Z,29.20
2018-07-15T08:46:45.993Z,29.30
2018-07-15T08:49:17.344Z,29.50
2018-07-15T08:51:48.292Z,29.50
2018-07-15T08:54:19.732Z,29.50
2018-07-15T08:56:50.991Z,29.40
2018-07-15T08:59:22.158Z,29.40
2018-07-15T09:01:53.469Z,29.40
2018-07-15T09:04:24.531Z,29.40
2018-07-15T09:06:55.768Z,29.40
2018-07-15T09:09:26.878Z,29.30
2018-07-15T09:11:58.108Z,29.20
2018-07-15T09:14:29.448Z,29.20
2018-07-15T09:17:00.778Z,29.10
2018-07-15T09:19:31.969Z,29.20
2018-07-15T09:22:03.292Z,29.30
2018-07-15T09:24:34.863Z,29.40
2018-07-15T09:27:06.242Z,29.30
2018-07-15T09:29:37.672Z,29.10
2018-07-15T09:32:08.868Z,28.60
2018-07-15T09:34:40.375Z,28.40
2018-07-15T09:37:11.761Z,28.30
2018-07-15T09:39:43.355Z,28.30
2018-07-15T09:42:14.926Z,28.30
2018-07-15T09:44:46.166Z,28.40
2018-07-15T09:47:17.495Z,28.30
2018-07-15T09:49:48.854Z,28.30
2018-07-15T09:52:20.597Z,28.20
2018-07-15T09:57:22.506Z,28.30
2018-07-15T09:59:53.719Z,28.50
2018-07-15T10:02:24.863Z,28.60
2018-07-15T10:04:56.077Z,28.70
2018-07-15T10:07:27.263Z,28.80
2018-07-15T10:09:58.312Z,28.90
2018-07-15T10:12:29.657Z,28.60
2018-07-15T10:15:01.874Z,28.20
2018-07-15T10:17:32.807Z,28.10
2018-07-15T10:20:04.495Z,27.90
2018-07-15T10:22:35.431Z,27.90
2018-07-15T10:25:06.539Z,28.10
2018-07-15T10:27:37.798Z,28.30
2018-07-15T10:30:09.110Z,28.50
2018-07-15T10:32:40.978Z,28.80
2018-07-15T10:35:12.362Z,28.90
2018-07-15T10:37:43.485Z,29.10
2018-07-15T10:40:15.126Z,29.20
2018-07-15T10:42:46.676Z,29.10
2018-07-15T10:45:17.906Z,29.20
2018-07-15T10:47:48.926Z,29.40
2018-07-15T10:50:20.146Z,29.60
2018-07-15T10:52:51.181Z,29.70
2018-07-15T10:55:22.948Z,29.90
2018-07-15T10:57:54.219Z,29.70
2018-07-15T11:00:25.694Z,29.80
2018-07-15T11:02:56.937Z,29.70
2018-07-15T11:05:28.214Z,29.60
2018-07-15T11:07:59.264Z,29.60
2018-07-15T11:10:30.483Z,29.70
2018-07-15T11:15:31.806Z,30.10
2018-07-15T11:18:02.957Z,30.20
2018-07-15T11:23:05.218Z,30.70
2018-07-15T11:25:36.384Z,30.90
2018-07-15T11:28:08.043Z,31.20
2018-07-15T11:30:39.443Z,31.40
2018-07-15T11:33:10.603Z,31.90
2018-07-15T11:35:41.909Z,32.00
2018-07-15T11:38:13.031Z,32.00
2018-07-15T11:40:44.067Z,32.10
2018-07-15T11:43:15.314Z,31.60
2018-07-15T11:45:46.980Z,30.80
2018-07-15T11:48:17.917Z,30.70
2018-07-15T11:50:49.060Z,30.80
2018-07-15T11:53:20.364Z,31.00
2018-07-15T11:55:51.429Z,31.20
2018-07-15T11:58:22.777Z,31.30
2018-07-15T12:00:53.571Z,31.40
2018-07-15T12:03:24.406Z,31.60
2018-07-15T12:05:55.469Z,31.50
2018-07-15T12:08:26.906Z,31.10
2018-07-15T12:10:58.421Z,30.90
2018-07-15T12:16:52.234Z,30.80
2018-07-15T12:19:40.949Z,30.60
2018-07-15T12:22:11.074Z,30.30
2018-07-15T12:24:49.030Z,30.30
2018-07-15T12:27:19.450Z,30.30
2018-07-15T12:29:49.536Z,30.40
2018-07-15T12:32:19.613Z,30.60
2018-07-15T12:34:50.159Z,31.00
2018-07-15T12:37:20.245Z,31.30
2018-07-15T12:39:50.273Z,31.70
2018-07-15T12:42:20.356Z,32.10
2018-07-15T12:45:08.972Z,32.40
2018-07-15T12:50:08.573Z,32.60
2018-07-15T12:52:38.638Z,32.70
2018-07-15T12:55:08.758Z,32.90
2018-07-15T12:57:57.393Z,33.20
2018-07-15T13:00:27.457Z,33.60
2018-07-15T13:02:57.506Z,34.00
2018-07-15T13:05:27.565Z,34.10
2018-07-15T13:07:57.617Z,34.10
2018-07-15T13:10:27.670Z,33.70
2018-07-15T13:12:57.731Z,33.50
2018-07-15T13:15:28.463Z,33.10
2018-07-15T13:17:59.231Z,32.80
2018-07-15T13:20:30.024Z,32.70
2018-07-15T13:23:00.763Z,32.60
2018-07-15T13:25:31.556Z,32.40
2018-07-15T13:28:02.332Z,32.10
2018-07-15T13:30:33.132Z,31.70
2018-07-15T13:33:03.869Z,31.40
2018-07-15T13:38:32.759Z,30.60
2018-07-15T13:41:03.484Z,30.10
2018-07-15T13:43:34.458Z,29.90
2018-07-15T13:46:05.191Z,29.90
2018-07-15T13:48:35.900Z,30.00
2018-07-15T13:51:06.625Z,30.20
2018-07-15T13:53:37.274Z,30.20
2018-07-15T13:56:08.042Z,30.10
2018-07-15T13:58:38.781Z,30.20
2018-07-15T14:01:09.467Z,30.30
2018-07-15T14:03:40.131Z,30.30
2018-07-15T14:06:10.732Z,30.40
2018-07-15T14:08:41.401Z,30.50
2018-07-15T14:11:12.138Z,30.50
2018-07-15T14:13:42.803Z,30.60
2018-07-15T14:16:13.578Z,30.60
2018-07-15T14:18:44.323Z,30.80
2018-07-15T14:21:14.992Z,30.70
2018-07-15T14:23:45.657Z,30.80
2018-07-15T14:26:16.413Z,30.90
2018-07-15T14:28:47.183Z,31.00
2018-07-15T14:31:18.105Z,31.00
2018-07-15T14:33:48.811Z,31.10
2018-07-15T14:36:19.959Z,31.20
2018-07-15T14:38:50.688Z,31.10
2018-07-15T14:41:21.399Z,31.00
2018-07-15T14:43:52.065Z,31.00
2018-07-15T14:46:22.730Z,31.00
2018-07-15T14:48:53.487Z,30.80
2018-07-15T14:51:24.315Z,30.50
2018-07-15T14:53:55.111Z,30.40
2018-07-15T14:56:26.072Z,30.40
2018-07-15T14:58:56.850Z,30.40
2018-07-15T15:01:27.613Z,30.50
2018-07-15T15:03:58.288Z,30.50
2018-07-15T15:06:29.036Z,30.60
2018-07-15T15:08:59.724Z,30.60
2018-07-15T15:11:30.487Z,30.70
2018-07-15T15:14:01.450Z,30.80
2018-07-15T15:16:32.431Z,30.90
2018-07-15T15:19:12.979Z,31.00
2018-07-15T15:21:43.722Z,31.20
2018-07-15T15:24:14.598Z,31.30
2018-07-15T15:26:45.662Z,31.40
2018-07-15T15:29:16.509Z,31.60
2018-07-15T15:31:47.518Z,31.70
2018-07-15T15:34:18.263Z,31.70
2018-07-15T15:36:49.053Z,31.70
2018-07-15T15:39:20.037Z,31.70
2018-07-15T15:41:50.986Z,31.60
2018-07-15T15:44:21.907Z,31.40
2018-07-15T15:46:52.221Z,31.20
2018-07-15T15:49:22.952Z,31.00
2018-07-15T15:51:53.043Z,30.70
2018-07-15T15:54:23.759Z,30.40
2018-07-15T15:56:58.354Z,30.00
2018-07-15T15:59:29.021Z,29.70
2018-07-15T16:01:59.759Z,29.60
2018-07-15T16:04:41.977Z,29.60
2018-07-15T16:07:12.635Z,29.80
2018-07-15T16:09:43.639Z,30.10
2018-07-15T16:12:14.330Z,30.40
2018-07-15T16:14:45.036Z,30.70
2018-07-15T16:17:15.822Z,30.90
2018-07-15T16:19:46.526Z,31.00
2018-07-15T16:22:17.210Z,31.20
2018-07-15T16:25:07.008Z,31.50
2018-07-15T16:27:37.779Z,31.80
2018-07-15T16:30:08.607Z,32.20
2018-07-15T16:32:58.440Z,32.30
2018-07-15T16:35:29.239Z,32.30
2018-07-15T16:37:59.995Z,32.30
2018-07-15T16:40:31.029Z,32.30
2018-07-15T16:43:02.198Z,32.00
2018-07-15T16:45:33.271Z,31.40
2018-07-15T16:48:04.378Z,30.90
2018-07-15T16:50:35.361Z,30.40
2018-07-15T16:53:06.200Z,30.30
2018-07-15T16:55:37.065Z,30.30
2018-07-15T16:58:07.692Z,30.30
2018-07-15T17:00:38.491Z,30.40
2018-07-15T17:03:09.202Z,30.30
2018-07-15T17:05:39.891Z,29.90
2018-07-15T17:08:10.560Z,29.20
2018-07-15T17:10:41.239Z,28.60
2018-07-15T17:13:15.555Z,28.40
2018-07-15T17:15:46.279Z,28.40
2018-07-15T17:18:17.004Z,28.40
2018-07-15T17:20:47.124Z,28.60
2018-07-15T17:23:17.841Z,29.00
2018-07-15T17:25:50.744Z,29.40
2018-07-15T17:28:21.451Z,29.80
2018-07-15T17:30:52.096Z,29.60
2018-07-15T17:33:22.931Z,29.60
2018-07-15T17:35:53.787Z,29.30
2018-07-15T17:38:24.475Z,28.90
2018-07-15T17:40:55.239Z,28.50
2018-07-15T17:43:25.955Z,28.30
2018-07-15T17:45:56.875Z,28.10
2018-07-15T17:48:27.675Z,28.00
2018-07-15T17:51:00.993Z,27.90
2018-07-15T17:53:31.800Z,27.80
2018-07-15T17:56:02.775Z,27.70
2018-07-15T17:58:34.170Z,27.50
2018-07-15T18:01:05.743Z,27.30
2018-07-15T18:03:36.617Z,27.10
2018-07-15T18:06:07.388Z,27.00
2018-07-15T18:08:38.029Z,26.90
2018-07-15T18:11:09.414Z,26.80
2018-07-15T18:13:44.683Z,26.70
2018-07-15T18:16:15.659Z,26.70
2018-07-15T18:18:46.663Z,26.50
2018-07-15T18:21:17.603Z,26.30
2018-07-15T18:23:48.588Z,26.00
2018-07-15T18:26:18.858Z,26.00
2018-07-15T18:28:49.540Z,25.90
2018-07-15T18:31:20.229Z,25.70
2018-07-15T18:36:54.116Z,24.90
2018-07-15T18:39:24.950Z,24.10
2018-07-15T18:41:56.047Z,23.80
2018-07-15T18:44:26.895Z,23.50
2018-07-15T18:46:57.968Z,23.40
2018-07-15T18:49:29.173Z,23.20
2018-07-15T18:51:59.939Z,23.00
2018-07-15T18:54:30.761Z,22.70
2018-07-15T18:57:01.853Z,22.50
2018-07-15T18:59:33.027Z,22.30
2018-07-15T19:02:03.935Z,22.10
2018-07-15T19:04:34.935Z,21.90
2018-07-15T19:07:05.771Z,21.70
2018-07-15T19:09:36.474Z,21.50
2018-07-15T19:12:07.516Z,21.40
2018-07-15T19:14:38.546Z,21.30
2018-07-15T19:17:09.570Z,21.20
2018-07-15T19:19:40.655Z,21.10
2018-07-15T19:22:11.561Z,21.00
2018-07-15T19:24:43.691Z,20.90
2018-07-15T19:27:14.600Z,20.90
2018-07-15T19:29:45.375Z,20.80
2018-07-15T19:32:16.550Z,20.70
2018-07-15T19:34:47.411Z,20.60
2018-07-15T19:37:18.199Z,20.60
2018-07-15T19:39:49.472Z,20.50
2018-07-15T19:42:20.352Z,20.30
2018-07-15T19:44:51.302Z,20.20
2018-07-15T19:47:29.821Z,20.10
2018-07-15T19:50:00.568Z,20.00
2018-07-15T19:52:31.629Z,19.90
2018-07-15T19:55:02.567Z,19.80
2018-07-15T19:57:33.547Z,19.80
2018-07-15T20:00:04.520Z,19.80
2018-07-15T20:02:35.399Z,19.70
2018-07-15T20:05:06.253Z,19.60
2018-07-15T20:07:36.993Z,19.60
2018-07-15T20:10:08.008Z,19.60
2018-07-15T20:12:38.665Z,19.60
2018-07-15T20:15:09.327Z,19.60
2018-07-15T20:17:40.228Z,19.60
2018-07-15T20:20:12.639Z,19.60
2018-07-15T20:22:44.182Z,19.50
2018-07-15T20:25:15.019Z,19.40
2018-07-15T20:27:45.879Z,19.30
2018-07-15T20:30:16.966Z,19.20
2018-07-15T20:32:47.699Z,19.10
2018-07-15T20:35:18.442Z,19.10
2018-07-15T20:37:49.362Z,19.00
2018-07-15T20:40:20.314Z,19.00
2018-07-15T20:42:51.366Z,18.90
2018-07-15T20:45:22.110Z,18.90
2018-07-15T20:47:52.792Z,18.80
2018-07-15T20:50:23.578Z,18.90
2018-07-15T20:52:54.338Z,18.80
2018-07-15T20:55:24.959Z,18.80
2018-07-15T20:57:55.551Z,18.80
2018-07-15T21:00:26.364Z,18.80
2018-07-15T21:02:57.271Z,18.70
2018-07-15T21:05:28.056Z,18.70
2018-07-15T21:07:59.060Z,18.70
2018-07-15T21:10:29.719Z,18.60
2018-07-15T21:13:00.447Z,18.50
2018-07-15T21:15:31.111Z,18.60
2018-07-15T21:18:02.035Z,18.60
2018-07-15T21:20:32.717Z,18.70
2018-07-15T21:23:03.520Z,18.80
2018-07-15T21:25:34.483Z,18.70
2018-07-15T21:28:05.717Z,18.60
2018-07-15T21:30:36.767Z,18.50
2018-07-15T21:33:07.654Z,18.40
2018-07-15T21:35:48.180Z,18.30
2018-07-15T21:38:19.311Z,18.20
2018-07-15T21:40:50.011Z,18.20
2018-07-15T21:43:20.999Z,18.20
2018-07-15T21:45:51.806Z,18.10
2018-07-15T21:48:22.651Z,18.10
2018-07-15T21:50:53.626Z,18.00
2018-07-15T21:53:24.504Z,17.90
2018-07-15T21:55:55.437Z,17.90
2018-07-15T21:58:26.372Z,17.80
2018-07-15T22:00:56.973Z,17.80
2018-07-15T22:03:28.098Z,17.80
2018-07-15T22:05:59.118Z,17.90
2018-07-15T22:08:40.531Z,17.80
2018-07-15T22:11:11.335Z,17.80
2018-07-15T22:13:42.378Z,17.80
2018-07-15T22:16:13.492Z,17.80
2018-07-15T22:18:44.778Z,17.80
2018-07-15T22:21:15.643Z,17.80
2018-07-15T22:23:46.615Z,17.90
2018-07-15T22:26:17.395Z,17.80
2018-07-15T22:28:48.494Z,17.80
2018-07-15T22:31:19.461Z,17.80
2018-07-15T22:33:50.403Z,17.80
2018-07-15T22:36:21.311Z,17.90
2018-07-15T22:38:52.288Z,17.90
2018-07-15T22:41:23.159Z,17.80
2018-07-15T22:43:54.151Z,17.80
2018-07-15T22:46:25.211Z,17.70
2018-07-15T22:48:56.211Z,17.60
2018-07-15T22:51:27.041Z,17.50
2018-07-15T22:54:07.608Z,17.40
2018-07-15T22:56:38.466Z,17.30
2018-07-15T22:59:09.485Z,17.30
2018-07-15T23:01:41.756Z,17.30
2018-07-15T23:04:12.389Z,17.30
2018-07-15T23:06:43.299Z,17.20
2018-07-15T23:09:14.244Z,17.20
2018-07-15T23:11:44.904Z,17.20
2018-07-15T23:14:15.505Z,17.10
2018-07-15T23:16:46.496Z,17.20
2018-07-15T23:19:17.713Z,17.10
2018-07-15T23:21:48.486Z,17.10
2018-07-15T23:24:19.434Z,17.10
2018-07-15T23:26:50.069Z,17.00
2018-07-15T23:29:20.916Z,17.00
2018-07-15T23:31:51.949Z,17.10
2018-07-15T23:34:23.136Z,17.10
2018-07-15T23:36:53.955Z,17.10
2018-07-15T23:39:25.080Z,17.10
2018-07-15T23:41:55.981Z,17.10
2018-07-15T23:44:26.877Z,16.90
2018-07-15T23:46:58.045Z,16.90
2018-07-15T23:49:29.196Z,16.90
2018-07-15T23:52:00.256Z,16.90
2018-07-15T23:54:31.203Z,16.90
2018-07-15T23:57:02.134Z,17.00
2018-07-15T23:59:33.143Z,17.00
